Αρχική σελίδα
METAR-TAF:

METAR-TAF

Αεροδρόμια :

Καράκας, Βενεζουέλα

γεωγραφικό πλάτος: 10-36N, γεωγραφικό μήκος: 066-59W, υψόμετρο: 43 μ

Παρών καιρός

Η αναφορά έγινε 1 ώρα και 7 λεπτά πριν, στις 07:00 UTC
Ήπιος άνεμος
Θερμοκρασία 22°C
Υγρασία 83%
Πίεση 1007 hPa
Ορατότητα 10 χλμ και άνω
Διάσπαρτα νέφη σε ύψος 1600 πόδια

METAR: SVMI 250700Z 00000KT 9999 SCT016 22/19 Q1007

Χρόνος: 04:07 (08:07 UTC)

Πρόγνωση Καιρού

Η αναφορά έγινε 4 ώρες και 7 λεπτά πριν, στις 04:00 UTC
Η πρόγνωση ισχύει από τις 25 στις 06 UTC έως τις 26 στις 06 UTC
Άνεμος kt από Β
Ορατότητα 10 χλμ και άνω
Αρκετά νέφη σε ύψος 1600 πόδια
Προσωρινά
από 25 στις 06 UTC έως τις 25 στις 10 UTC
Ορατότητα: 8000 μ
Αρκετά νέφη σε ύψος 1300 πόδια
Ψιλόβροχο

TAF: SVMI 250400Z 2506/2606 00000KT 9999 BKN016 TX33/19Z TN24/09Z TEMPO 2506/2510 8000 DZ BKN013

Μετεωρολογικές αναφορές και προγνώσεις για περισσότερα από 4000 αεροδρόμια (δελτία METAR και TAF).

Οι διαθέσιμοι σταθμοί απεικονίζονται στο χάρτη με κίτρινες και κόκκινες κουκκίδες.

Μετακινήστε το ποντίκι πάνω από τις κουκκίδες για να δείτε το όνομα του σταθμού.

Στη συνέχεια, κάντε κλικ για να δείτε τις μετεωρολογικές αναφορές και τις προγνώσεις καιρού.

Για να αλλάξετε το χάρτη: κάντε κλικ στα πράσινα κουμπιά με τον μαύρο σταυρό για να ζουμάρετε, στο πράσινο κουμπί με την παύλα για να αφαιρέσετε το ζουμ ή στα πράσινα βέλη για να αντιπαραβάλλετε χάρτες.


METAR-TAF: